New Castle, Pennsylvania
Current Conditions -  °F | °C
As of 5:47 PM on Thursday 18 Dec 2014 (Local Time) from KBVI Reporting Station
Overcast Overcast  
Wind Chill: 21°   Ceiling: 1400
Heat Index: 27°   Visibility: 10mi
Dew Point: 25°   Wind: 5mph
Humidity: 93%   Direction: 270°W
Pressure: 30.15"   Gusts: NA
Location:  41°N, 80.35°W
Report Text: KBVI 182247Z 27004KT 10SM SCT009 OVC014 M03/M04 A3015
Loading
Personal Weather Stations






























Interactive Weather Map New forecast layout! Learn more

10-Day Weather Forecast

Advertisements
Track Severe Weather on mobile